Time;durP1;ratioP1;P1;durP2;ratioP2;P2;SDS_P1;SDS_P2;PMS_P1;PMS_P2;Temp;Humidity;BMP_temperature;BMP_pressure;BME280_temperature;BME280_humidity;BME280_pressure;Samples;Min_cycle;Max_cycle;Signal;HPM_P1;HPM_P2
2023/07/28 00:04:35;;;;;;;3.47;3.17;;;;;;;16.99;100.00;99675.51;4974098;56;1138743;-65
2023/07/28 00:09:41;;;;;;;6.10;3.07;;;;;;;16.99;100.00;99663.98;4906648;58;1138911;-64
2023/07/28 00:14:47;;;;;;;3.50;2.93;;;;;;;16.99;100.00;99652.80;4984144;57;1138822;-64
2023/07/28 00:19:54;;;;;;;5.10;3.34;;;;;;;17.01;100.00;99652.63;5024888;57;1138816;-66
2023/07/28 00:24:59;;;;;;;4.53;2.92;;;;;;;17.03;100.00;99645.27;5080229;56;1138981;-65
2023/07/28 00:30:06;;;;;;;6.63;3.33;;;;;;;17.04;100.00;99641.08;5111259;56;1138810;-64
2023/07/28 00:35:12;;;;;;;5.40;3.02;;;;;;;17.05;100.00;99630.72;5080639;56;1139233;-64
2023/07/28 00:40:18;;;;;;;5.60;2.83;;;;;;;17.00;100.00;99643.78;5032356;56;1138740;-64
2023/07/28 00:45:24;;;;;;;3.53;3.13;;;;;;;16.93;100.00;99632.68;5032748;57;1138770;-65
2023/07/28 00:50:30;;;;;;;5.20;3.80;;;;;;;16.98;100.00;99627.60;5032647;57;1138796;-64
2023/07/28 00:55:36;;;;;;;3.63;3.27;;;;;;;16.95;100.00;99607.95;5075425;55;1138754;-64
2023/07/28 01:00:41;;;;;;;5.43;3.27;;;;;;;16.98;100.00;99602.23;5054727;56;1138822;-64
2023/07/28 01:06:03;;;;;;;10.87;4.00;;;;;;;16.95;100.00;99589.27;5049166;55;1138991;-64
2023/07/28 01:11:09;;;;;;;7.25;3.70;;;;;;;16.95;100.00;99582.58;5048692;56;1140786;-65
2023/07/28 01:16:15;;;;;;;6.72;4.12;;;;;;;16.97;100.00;99569.84;4966849;57;1138763;-64
2023/07/28 01:21:29;;;;;;;5.07;3.87;;;;;;;16.95;100.00;99566.55;5032097;56;1138647;-65
2023/07/28 01:26:37;;;;;;;6.97;3.93;;;;;;;16.94;100.00;99555.04;4994349;57;1138697;-64
2023/07/28 01:31:43;;;;;;;4.90;4.30;;;;;;;16.96;100.00;99545.52;4954741;58;1138668;-64
2023/07/28 01:36:48;;;;;;;4.67;4.00;;;;;;;17.01;100.00;99539.09;4906308;58;1138933;-65
2023/07/28 01:41:55;;;;;;;8.75;4.15;;;;;;;16.97;100.00;99534.61;4919962;57;1138874;-65
2023/07/28 01:47:01;;;;;;;4.47;3.60;;;;;;;16.94;100.00;99538.19;4911669;58;1138840;-63
2023/07/28 01:52:06;;;;;;;8.55;3.37;;;;;;;16.88;100.00;99528.55;4906487;58;1138750;-64
2023/07/28 01:57:12;;;;;;;4.75;4.03;;;;;;;16.92;100.00;99521.00;4931725;57;1139035;-63
2023/07/28 02:02:18;;;;;;;7.93;4.67;;;;;;;16.92;100.00;99514.33;4925623;58;1138808;-65
2023/07/28 02:07:23;;;;;;;6.43;3.93;;;;;;;16.87;100.00;99510.03;4905683;58;1139120;-65
2023/07/28 02:12:29;;;;;;;3.53;3.23;;;;;;;16.81;100.00;99496.06;4946837;57;1138902;-65
2023/07/28 02:17:34;;;;;;;15.60;3.67;;;;;;;16.75;100.00;99492.81;5005435;57;1138639;-65
2023/07/28 02:27:45;;;;;;;5.30;3.60;;;;;;;16.76;100.00;99495.81;5264775;55;46478;-63
2023/07/28 02:32:51;;;;;;;8.30;3.53;;;;;;;16.68;100.00;99490.54;5029172;57;1134862;-63
2023/07/28 02:37:56;;;;;;;5.97;4.07;;;;;;;16.69;100.00;99493.53;4956911;56;1138880;-64
2023/07/28 02:43:02;;;;;;;4.63;3.97;;;;;;;16.65;100.00;99490.93;4946455;58;1138905;-62
2023/07/28 02:48:08;;;;;;;5.08;4.30;;;;;;;16.60;100.00;99479.42;4965985;58;1138899;-64
2023/07/28 02:53:13;;;;;;;4.33;3.58;;;;;;;16.53;100.00;99483.31;4977116;57;1138875;-63
2023/07/28 02:58:19;;;;;;;4.70;4.00;;;;;;;16.51;100.00;99473.83;5027526;57;1138852;-62
2023/07/28 03:03:26;;;;;;;4.80;3.63;;;;;;;16.48;100.00;99467.05;5027784;57;1138679;-63
2023/07/28 03:08:31;;;;;;;4.67;3.00;;;;;;;16.43;100.00;99481.42;5047300;57;1138975;-63
2023/07/28 03:13:39;;;;;;;8.40;4.33;;;;;;;16.41;100.00;99478.11;5024218;57;1138775;-64
2023/07/28 03:18:44;;;;;;;6.17;2.93;;;;;;;16.42;100.00;99465.09;5027375;57;1138898;-63
2023/07/28 03:23:50;;;;;;;3.90;3.60;;;;;;;16.53;100.00;99475.31;5047183;56;1138436;-64
2023/07/28 03:28:55;;;;;;;5.00;3.37;;;;;;;16.56;100.00;99473.30;5100072;56;1138768;-63
2023/07/28 03:34:01;;;;;;;5.52;3.36;;;;;;;16.56;100.00;99474.63;5037883;57;1138905;-65
2023/07/28 03:39:07;;;;;;;3.10;2.65;;;;;;;16.52;100.00;99477.66;5055390;57;1138668;-64
2023/07/28 03:44:12;;;;;;;3.62;2.92;;;;;;;16.55;100.00;99468.45;5035415;57;1138811;-63
2023/07/28 03:49:18;;;;;;;2.93;2.50;;;;;;;16.43;100.00;99468.59;5095187;56;1139051;-63
2023/07/28 03:54:25;;;;;;;4.20;3.10;;;;;;;16.45;100.00;99462.56;5122624;56;1138808;-62
2023/07/28 03:59:30;;;;;;;3.33;3.00;;;;;;;16.41;100.00;99450.09;5161909;56;1138693;-64
2023/07/28 04:04:37;;;;;;;6.13;3.00;;;;;;;16.42;100.00;99442.91;4973802;58;1138715;-63
2023/07/28 04:09:43;;;;;;;6.33;3.70;;;;;;;16.49;100.00;99434.00;5141732;56;1138795;-63
2023/07/28 04:14:49;;;;;;;4.83;3.30;;;;;;;16.54;100.00;99424.09;4991775;58;1138985;-64
2023/07/28 04:19:54;;;;;;;2.73;2.57;;;;;;;16.57;100.00;99415.72;5056416;56;1138854;-62
2023/07/28 04:25:00;;;;;;;6.20;3.00;;;;;;;16.55;100.00;99400.39;5057801;56;1138880;-65
2023/07/28 04:30:06;;;;;;;4.13;2.37;;;;;;;16.57;100.00;99409.55;5099154;56;1138826;-63
2023/07/28 04:35:13;;;;;;;4.17;1.92;;;;;;;16.63;100.00;99422.20;5142726;56;1138898;-63
2023/07/28 04:40:38;;;;;;;2.30;2.10;;;;;;;16.72;100.00;99411.23;5106446;56;1138929;-63
2023/07/28 04:45:46;;;;;;;3.00;2.20;;;;;;;16.78;100.00;99405.67;5091039;56;1138727;-65
2023/07/28 04:50:54;;;;;;;2.00;1.90;;;;;;;16.74;100.00;99391.86;5116579;56;1138965;-66
2023/07/28 04:56:03;;;;;;;2.00;1.90;;;;;;;16.76;100.00;99388.50;5097347;56;1138975;-65
2023/07/28 05:01:09;;;;;;;1.70;1.70;;;;;;;16.81;100.00;99380.73;5121722;56;1139053;-66
2023/07/28 05:06:15;;;;;;;2.12;2.00;;;;;;;16.87;100.00;99389.34;5163010;56;1138739;-66
2023/07/28 05:11:21;;;;;;;1.90;1.80;;;;;;;16.89;100.00;99387.83;5118732;56;1138689;-66
2023/07/28 05:16:26;;;;;;;1.50;1.40;;;;;;;16.87;100.00;99408.55;5056901;56;1138994;-67
2023/07/28 05:21:52;;;;;;;2.33;2.13;;;;;;;16.76;100.00;99400.52;5124651;56;1139112;-63
2023/07/28 05:26:59;;;;;;;3.03;1.83;;;;;;;16.73;100.00;99404.05;5111142;56;1138784;-65
2023/07/28 05:32:06;;;;;;;1.60;1.60;;;;;;;16.77;100.00;99397.34;5098725;55;1139262;-64
2023/07/28 05:37:13;;;;;;;2.87;2.20;;;;;;;16.76;100.00;99402.35;5054136;57;1138902;-64
2023/07/28 05:42:19;;;;;;;3.17;1.67;;;;;;;16.77;100.00;99393.33;5076319;57;1138952;-63
2023/07/28 05:47:25;;;;;;;1.53;1.43;;;;;;;16.83;100.00;99391.23;5083213;56;1139027;-64
2023/07/28 05:52:31;;;;;;;3.42;1.52;;;;;;;16.87;100.00;99368.48;5141631;56;1139060;-64
2023/07/28 05:57:37;;;;;;;1.70;1.63;;;;;;;16.93;100.00;99354.91;5116209;56;1138835;-64
2023/07/28 06:02:44;;;;;;;1.60;1.50;;;;;;;16.98;100.00;99342.62;5055267;56;1138836;-64
2023/07/28 06:07:51;;;;;;;1.30;1.30;;;;;;;17.06;100.00;99349.70;5102278;56;1138909;-66
2023/07/28 06:12:57;;;;;;;2.93;1.30;;;;;;;17.10;100.00;99372.36;5161872;56;1138801;-65
2023/07/28 06:18:03;;;;;;;1.53;1.43;;;;;;;17.10;100.00;99367.02;5132902;56;1138710;-65
2023/07/28 06:23:09;;;;;;;2.05;1.37;;;;;;;16.99;100.00;99361.64;5056984;57;1138695;-64
2023/07/28 06:28:14;;;;;;;1.37;1.27;;;;;;;17.00;100.00;99385.17;5132633;56;1138686;-64
2023/07/28 06:33:20;;;;;;;3.27;1.60;;;;;;;16.96;100.00;99390.05;5137413;56;1138785;-64
2023/07/28 06:38:27;;;;;;;2.10;2.00;;;;;;;16.94;100.00;99384.09;4968931;58;1138784;-65
2023/07/28 06:43:32;;;;;;;2.60;2.47;;;;;;;16.93;100.00;99382.44;5136962;56;1139100;-64
2023/07/28 06:48:40;;;;;;;3.20;2.87;;;;;;;16.99;100.00;99374.98;5120270;56;1138887;-66
2023/07/28 06:53:46;;;;;;;3.43;3.23;;;;;;;17.02;100.00;99373.80;5072599;56;1138721;-63
2023/07/28 06:58:52;;;;;;;7.80;3.80;;;;;;;17.10;100.00;99373.19;5063246;56;1138731;-66
2023/07/28 07:03:57;;;;;;;3.70;2.80;;;;;;;17.16;100.00;99369.74;5077960;56;1138836;-65
2023/07/28 07:09:03;;;;;;;4.77;4.37;;;;;;;17.19;100.00;99378.72;5100000;56;1138607;-64
2023/07/28 07:14:09;;;;;;;2.80;2.60;;;;;;;17.28;100.00;99379.92;5125231;56;1139180;-65
2023/07/28 07:19:15;;;;;;;2.98;2.20;;;;;;;17.36;100.00;99381.16;5067206;57;1138853;-64
2023/07/28 07:24:21;;;;;;;3.90;2.45;;;;;;;17.43;100.00;99388.72;5047651;57;1138855;-64
2023/07/28 07:29:26;;;;;;;2.17;2.00;;;;;;;17.44;100.00;99387.19;5123375;56;1138739;-64
2023/07/28 07:34:33;;;;;;;2.05;1.95;;;;;;;17.47;100.00;99386.81;5128670;56;1138982;-64
2023/07/28 07:39:41;;;;;;;3.02;1.70;;;;;;;17.49;100.00;99391.47;5109760;56;1138484;-64
2023/07/28 07:44:46;;;;;;;1.60;1.50;;;;;;;17.52;100.00;99387.08;4986698;56;1138689;-65
2023/07/28 07:49:52;;;;;;;1.10;1.10;;;;;;;17.57;100.00;99384.64;4973704;57;1138543;-65
2023/07/28 07:54:57;;;;;;;1.70;1.60;;;;;;;17.59;100.00;99391.14;5030244;57;1138946;-66
2023/07/28 08:00:03;;;;;;;2.35;1.70;;;;;;;17.67;100.00;99391.56;5056073;57;1138937;-66
2023/07/28 08:05:11;;;;;;;1.43;1.43;;;;;;;17.74;100.00;99393.26;5054524;56;1139093;-66
2023/07/28 08:10:16;;;;;;;1.82;1.77;;;;;;;17.80;100.00;99393.84;5080915;56;1138830;-65
2023/07/28 08:15:22;;;;;;;2.10;2.00;;;;;;;17.84;100.00;99390.27;5140497;56;1138796;-66
2023/07/28 08:20:28;;;;;;;2.08;1.85;;;;;;;17.96;100.00;99389.23;5140474;56;1139000;-64
2023/07/28 08:25:34;;;;;;;2.27;2.17;;;;;;;18.05;100.00;99383.53;5140560;55;1138947;-65
2023/07/28 08:30:40;;;;;;;2.00;1.50;;;;;;;18.17;100.00;99391.87;5159567;56;1138812;-65
2023/07/28 08:35:45;;;;;;;1.57;1.05;;;;;;;18.21;100.00;99389.92;5139433;56;1139375;-65
2023/07/28 08:40:51;;;;;;;0.80;0.80;;;;;;;18.24;100.00;99396.23;5138342;56;1138801;-66
2023/07/28 08:45:57;;;;;;;1.20;0.85;;;;;;;18.28;100.00;99400.18;5155586;56;1138822;-65
2023/07/28 08:51:08;;;;;;;0.78;0.78;;;;;;;18.32;100.00;99393.11;4986233;57;1138766;-67
2023/07/28 08:56:13;;;;;;;1.40;1.30;;;;;;;18.37;100.00;99397.33;5022177;56;1138863;-65
2023/07/28 09:01:23;;;;;;;2.50;1.40;;;;;;;18.41;100.00;99397.27;5076683;56;1138893;-65
2023/07/28 09:06:32;;;;;;;2.62;1.25;;;;;;;18.41;100.00;99387.38;5125157;56;1138898;-64
2023/07/28 09:11:47;;;;;;;2.00;1.73;;;;;;;18.46;100.00;99393.50;5072632;56;1139155;-65
2023/07/28 09:16:54;;;;;;;1.30;1.30;;;;;;;18.46;100.00;99394.84;5138895;56;1138932;-66
2023/07/28 09:22:04;;;;;;;3.45;3.22;;;;;;;18.48;100.00;99389.61;5128603;56;1138599;-66
2023/07/28 09:27:22;;;;;;;3.02;1.67;;;;;;;18.50;100.00;99387.53;5090505;56;1138769;-65
2023/07/28 09:32:37;;;;;;;2.25;1.60;;;;;;;18.55;100.00;99398.48;5043863;57;1138918;-66
2023/07/28 09:37:49;;;;;;;1.90;1.80;;;;;;;18.60;100.00;99391.23;5065407;57;1138769;-64
2023/07/28 09:42:55;;;;;;;4.67;2.17;;;;;;;18.83;100.00;99396.28;5010644;57;1138846;-65
2023/07/28 09:48:03;;;;;;;2.58;2.00;;;;;;;19.16;100.00;99394.55;4939065;57;1138902;-65
2023/07/28 09:53:11;;;;;;;2.02;1.82;;;;;;;19.33;100.00;99389.65;5022608;57;1138799;-64
2023/07/28 09:58:19;;;;;;;1.80;1.50;;;;;;;19.31;100.00;99398.41;5075953;56;1138850;-65
2023/07/28 10:03:25;;;;;;;4.95;2.00;;;;;;;19.30;100.00;99395.41;5014024;56;1138879;-66
2023/07/28 10:08:31;;;;;;;2.37;2.10;;;;;;;19.48;100.00;99386.28;5077857;57;1138801;-65
2023/07/28 10:13:46;;;;;;;2.05;1.95;;;;;;;19.94;100.00;99382.31;5045620;56;1138649;-66
2023/07/28 10:18:59;;;;;;;5.97;1.73;;;;;;;20.17;100.00;99397.97;5029742;57;1138860;-65
2023/07/28 10:24:07;;;;;;;3.05;2.12;;;;;;;20.23;100.00;99393.13;5042620;56;1138630;-66
2023/07/28 10:29:14;;;;;;;2.47;1.67;;;;;;;20.24;100.00;99396.12;5008693;57;1139032;-65
2023/07/28 10:34:21;;;;;;;1.62;1.52;;;;;;;20.26;100.00;99393.23;4998662;57;1138823;-66
2023/07/28 10:39:27;;;;;;;1.85;1.40;;;;;;;20.16;100.00;99395.53;4998269;58;1138800;-65
2023/07/28 10:44:34;;;;;;;1.95;1.87;;;;;;;20.08;100.00;99393.87;4998653;58;1139171;-66
2023/07/28 10:49:40;;;;;;;3.58;1.77;;;;;;;20.10;100.00;99395.83;5018761;57;1138982;-65
2023/07/28 10:54:46;;;;;;;3.95;1.75;;;;;;;19.98;100.00;99406.37;4937357;57;1138997;-66
2023/07/28 10:59:52;;;;;;;2.17;1.92;;;;;;;19.87;100.00;99406.97;5003857;57;1138805;-65
2023/07/28 11:04:58;;;;;;;2.27;1.40;;;;;;;19.75;100.00;99433.28;4960564;57;1138754;-65
2023/07/28 11:10:06;;;;;;;1.25;1.12;;;;;;;19.55;100.00;99432.75;4953670;56;1138853;-65
2023/07/28 11:15:13;;;;;;;3.92;1.25;;;;;;;19.48;100.00;99443.94;4961146;56;1138977;-65
2023/07/28 11:20:25;;;;;;;7.53;2.60;;;;;;;19.69;100.00;99440.82;4980780;56;1138785;-65
2023/07/28 11:25:31;;;;;;;1.80;1.70;;;;;;;20.30;100.00;99425.36;4964791;56;1138750;-66
2023/07/28 11:30:38;;;;;;;1.67;1.57;;;;;;;20.68;100.00;99434.39;4885128;58;1138811;-65
2023/07/28 11:35:46;;;;;;;1.67;1.30;;;;;;;20.68;100.00;99442.45;4938165;57;1139021;-65
2023/07/28 11:40:53;;;;;;;3.77;1.60;;;;;;;20.56;100.00;99428.02;5031190;57;1138885;-65
2023/07/28 11:45:58;;;;;;;1.85;1.40;;;;;;;20.60;100.00;99433.29;5028252;57;1139027;-65
2023/07/28 11:51:05;;;;;;;1.50;1.40;;;;;;;20.89;100.00;99432.48;5132354;56;1138639;-65
2023/07/28 11:56:10;;;;;;;1.40;1.30;;;;;;;21.02;100.00;99437.80;5115516;56;1138974;-65
2023/07/28 12:01:16;;;;;;;1.60;0.90;;;;;;;21.01;100.00;99442.36;5124573;56;1138891;-64
2023/07/28 12:06:22;;;;;;;1.10;1.10;;;;;;;21.08;100.00;99441.00;5210193;55;1138668;-66
2023/07/28 12:11:27;;;;;;;1.62;1.52;;;;;;;21.16;100.00;99438.05;5220229;55;1138883;-65
2023/07/28 12:16:41;;;;;;;1.00;1.00;;;;;;;21.33;100.00;99451.87;5220118;55;1139135;-66
2023/07/28 12:21:47;;;;;;;2.92;2.35;;;;;;;21.30;100.00;99445.05;5239942;55;1138922;-65
2023/07/28 12:26:53;;;;;;;0.66;0.66;;;;;;;21.23;100.00;99442.93;5185835;55;1138752;-65
2023/07/28 12:31:58;;;;;;;1.55;1.10;;;;;;;21.27;100.00;99445.47;5192710;55;1138848;-65
2023/07/28 12:37:04;;;;;;;2.47;1.40;;;;;;;21.29;100.00;99459.53;5145864;55;1138872;-66
2023/07/28 12:42:11;;;;;;;1.00;1.00;;;;;;;21.25;100.00;99469.06;5123431;55;1138750;-65
2023/07/28 12:47:17;;;;;;;1.20;1.20;;;;;;;21.16;100.00;99495.87;5174907;55;1138825;-64
2023/07/28 12:52:23;;;;;;;0.65;0.65;;;;;;;21.01;100.00;99493.95;5218027;55;1138769;-64
2023/07/28 12:57:28;;;;;;;0.60;0.60;;;;;;;20.86;100.00;99502.27;5155345;55;1138968;-64
2023/07/28 13:02:34;;;;;;;1.03;1.03;;;;;;;20.71;100.00;99505.19;5142211;55;1138763;-65
2023/07/28 13:07:41;;;;;;;4.92;0.93;;;;;;;20.76;100.00;99507.25;5217929;55;1138748;-66
2023/07/28 13:12:46;;;;;;;0.82;0.82;;;;;;;21.00;100.00;99506.56;5197458;55;1138894;-65
2023/07/28 13:17:52;;;;;;;1.00;0.98;;;;;;;21.40;100.00;99509.14;5197369;55;1138566;-66
2023/07/28 13:22:57;;;;;;;0.60;0.60;;;;;;;21.60;100.00;99500.98;5217821;55;1138733;-66
2023/07/28 13:28:03;;;;;;;2.52;0.80;;;;;;;21.77;100.00;99512.90;5158842;55;1138684;-65
2023/07/28 13:33:08;;;;;;;0.90;0.90;;;;;;;21.71;100.00;99519.13;5179451;55;1138860;-66
2023/07/28 13:38:14;;;;;;;4.95;1.05;;;;;;;21.78;100.00;99517.24;5217653;55;1138873;-66
2023/07/28 13:43:20;;;;;;;1.72;1.02;;;;;;;21.96;100.00;99515.17;5023680;56;1138665;-66
2023/07/28 13:48:25;;;;;;;0.90;0.90;;;;;;;22.15;100.00;99519.64;5061661;55;1138822;-66
2023/07/28 13:53:31;;;;;;;0.80;0.80;;;;;;;21.98;100.00;99531.94;5197459;55;1139285;-66
2023/07/28 13:58:37;;;;;;;0.80;0.78;;;;;;;21.98;100.00;99531.94;5093565;55;1138590;-64
2023/07/28 14:03:44;;;;;;;0.80;0.80;;;;;;;22.14;100.00;99542.22;5170386;55;1139359;-66
2023/07/28 14:08:49;;;;;;;0.75;0.75;;;;;;;22.32;100.00;99546.31;5196409;55;1138707;-65
2023/07/28 14:13:55;;;;;;;0.80;0.80;;;;;;;22.54;100.00;99554.86;5216669;55;1138909;-65
2023/07/28 14:19:01;;;;;;;1.10;1.10;;;;;;;22.75;100.00;99554.48;5196199;55;1139194;-66
2023/07/28 14:24:07;;;;;;;1.20;1.20;;;;;;;22.92;100.00;99556.09;5196333;55;1139154;-65
2023/07/28 14:29:13;;;;;;;1.46;1.36;;;;;;;23.17;100.00;99561.98;5190920;55;1138740;-65
2023/07/28 14:34:18;;;;;;;1.30;1.30;;;;;;;23.31;100.00;99564.31;5196517;55;1138824;-66
2023/07/28 14:39:24;;;;;;;1.40;1.40;;;;;;;23.52;100.00;99554.15;5062022;55;1138767;-65
2023/07/28 14:44:30;;;;;;;1.40;1.40;;;;;;;23.46;100.00;99560.70;5024575;56;1138690;-65
2023/07/28 14:49:36;;;;;;;1.60;1.57;;;;;;;23.40;100.00;99559.42;5056743;56;1138670;-66
2023/07/28 14:54:41;;;;;;;1.80;1.70;;;;;;;23.23;100.00;99575.38;5109830;56;1139087;-66
2023/07/28 14:59:48;;;;;;;2.30;2.10;;;;;;;23.08;100.00;99596.50;5188439;55;1138601;-67
2023/07/28 15:04:53;;;;;;;2.27;2.15;;;;;;;22.76;100.00;99603.31;5230444;55;1139009;-65
2023/07/28 15:09:59;;;;;;;2.50;2.30;;;;;;;22.40;100.00;99611.25;5210084;55;1138922;-67
2023/07/28 15:15:05;;;;;;;2.15;2.08;;;;;;;22.12;100.00;99623.75;5197204;55;1138506;-66
2023/07/28 15:20:11;;;;;;;2.42;2.22;;;;;;;22.04;100.00;99630.72;5152498;56;1138666;-67
2023/07/28 15:25:17;;;;;;;2.67;2.47;;;;;;;22.08;100.00;99623.88;5155166;56;1138971;-65
2023/07/28 15:30:23;;;;;;;1.10;1.10;;;;;;;22.17;100.00;99619.05;5201855;55;1138880;-65
2023/07/28 15:35:28;;;;;;;1.22;1.22;;;;;;;22.29;100.00;99622.73;5216664;55;1138864;-66
2023/07/28 15:40:34;;;;;;;2.67;1.10;;;;;;;22.31;100.00;99620.62;5189357;55;1139063;-66
2023/07/28 15:45:40;;;;;;;1.02;1.02;;;;;;;22.40;100.00;99626.06;5195544;55;1138871;-66
2023/07/28 15:50:45;;;;;;;2.33;1.55;;;;;;;22.48;100.00;99624.97;5153932;55;1138667;-66
2023/07/28 15:55:51;;;;;;;1.70;1.55;;;;;;;22.71;100.00;99613.09;5126631;55;1138729;-66
2023/07/28 16:00:57;;;;;;;1.82;1.20;;;;;;;22.95;100.00;99621.72;5109934;55;1138638;-66
2023/07/28 16:06:03;;;;;;;1.40;1.00;;;;;;;23.00;100.00;99621.07;5113370;56;1138674;-66
2023/07/28 16:11:08;;;;;;;1.62;1.27;;;;;;;22.93;100.00;99637.30;5156395;55;1138752;-65
2023/07/28 16:16:14;;;;;;;1.80;1.40;;;;;;;22.83;100.00;99637.50;5139422;55;1139088;-66
2023/07/28 16:21:20;;;;;;;0.93;0.93;;;;;;;22.71;100.00;99640.88;5130848;55;1138639;-66
2023/07/28 16:26:26;;;;;;;1.10;1.10;;;;;;;22.66;100.00;99637.17;5131195;55;1138931;-67
2023/07/28 16:31:31;;;;;;;1.95;1.62;;;;;;;22.60;100.00;99660.98;5185709;55;1138800;-64
2023/07/28 16:36:37;;;;;;;3.75;3.33;;;;;;;22.45;100.00;99659.41;5172979;55;1138779;-65
2023/07/28 16:41:49;;;;;;;5.87;2.20;;;;;;;22.22;100.00;99677.97;5126020;55;1138760;-65
2023/07/28 16:46:53;;;;;;;3.50;2.02;;;;;;;21.97;100.00;99681.90;5211758;55;1138658;-64
2023/07/28 16:51:59;;;;;;;6.25;3.42;;;;;;;21.68;100.00;99702.59;5161763;55;1138894;-67
2023/07/28 16:57:05;;;;;;;3.75;2.00;;;;;;;21.19;100.00;99694.97;5107923;55;1139016;-66
2023/07/28 17:02:10;;;;;;;6.28;2.20;;;;;;;20.83;100.00;99690.81;5054080;56;1138821;-65
2023/07/28 17:07:16;;;;;;;3.67;2.33;;;;;;;20.81;100.00;99698.25;5069934;55;1138930;-65
2023/07/28 17:12:21;;;;;;;6.67;4.97;;;;;;;20.79;100.00;99700.83;5132815;55;1139118;-65
2023/07/28 17:17:27;;;;;;;5.12;3.62;;;;;;;20.80;100.00;99708.69;5142072;55;1138982;-66
2023/07/28 17:22:34;;;;;;;3.62;2.40;;;;;;;20.77;100.00;99706.44;5123191;55;1138813;-66
2023/07/28 17:27:39;;;;;;;7.58;2.70;;;;;;;20.85;100.00;99728.23;5127571;55;1138888;-66
2023/07/28 17:32:45;;;;;;;2.80;2.10;;;;;;;20.84;100.00;99723.38;5120979;55;1138907;-66
2023/07/28 17:37:51;;;;;;;2.90;2.05;;;;;;;20.83;100.00;99727.61;5124347;55;1138930;-66
2023/07/28 17:42:56;;;;;;;3.62;2.10;;;;;;;20.79;100.00;99737.11;5057635;56;1139023;-65
2023/07/28 17:48:02;;;;;;;2.95;2.17;;;;;;;20.81;100.00;99733.70;5098148;55;1138859;-66
2023/07/28 17:53:08;;;;;;;2.85;2.37;;;;;;;20.75;100.00;99739.91;5162734;55;1138807;-66
2023/07/28 17:58:14;;;;;;;2.05;1.90;;;;;;;20.72;100.00;99750.55;5191980;55;1138865;-65
2023/07/28 18:03:20;;;;;;;3.27;2.27;;;;;;;20.71;100.00;99763.16;5215167;55;1138731;-65
2023/07/28 18:08:26;;;;;;;4.30;1.92;;;;;;;20.66;100.00;99763.44;5209885;55;1138753;-65
2023/07/28 18:13:32;;;;;;;2.37;1.90;;;;;;;20.63;100.00;99765.18;5193822;55;1138807;-65
2023/07/28 18:18:37;;;;;;;2.20;2.10;;;;;;;20.59;100.00;99769.33;5167754;55;1138725;-66
2023/07/28 18:23:43;;;;;;;3.33;2.35;;;;;;;20.51;100.00;99770.31;5167585;55;1138759;-66
2023/07/28 18:28:48;;;;;;;5.78;2.08;;;;;;;20.46;100.00;99770.12;5179385;55;1138919;-66
2023/07/28 18:33:54;;;;;;;13.62;8.70;;;;;;;20.44;100.00;99772.17;5166082;55;1138724;-66
2023/07/28 18:39:00;;;;;;;8.23;3.72;;;;;;;20.43;100.00;99771.85;5167489;55;1140851;-66
2023/07/28 18:44:05;;;;;;;3.90;2.35;;;;;;;20.45;100.00;99775.69;5189321;55;1138755;-66
2023/07/28 18:49:11;;;;;;;6.97;2.10;;;;;;;20.39;100.00;99790.73;5175553;55;1139034;-65
2023/07/28 18:54:17;;;;;;;2.30;2.16;;;;;;;20.32;100.00;99789.83;5185316;55;1138904;-67
2023/07/28 18:59:23;;;;;;;3.40;2.47;;;;;;;20.26;100.00;99798.70;5187734;55;1138904;-66
2023/07/28 19:04:29;;;;;;;8.73;3.43;;;;;;;20.19;100.00;99803.20;5163645;55;1138633;-65
2023/07/28 19:09:35;;;;;;;9.93;2.42;;;;;;;20.13;100.00;99814.23;5168699;55;1138876;-65
2023/07/28 19:14:43;;;;;;;2.10;2.00;;;;;;;20.08;100.00;99816.67;5183580;55;1138786;-65
2023/07/28 19:19:48;;;;;;;1.62;1.52;;;;;;;20.05;100.00;99819.74;5174288;55;1138935;-64
2023/07/28 19:24:54;;;;;;;1.90;1.67;;;;;;;20.01;100.00;99819.84;5216060;55;1138818;-65
2023/07/28 19:29:59;;;;;;;1.98;1.87;;;;;;;20.12;100.00;99823.31;5153683;56;1138750;-65
2023/07/28 19:35:06;;;;;;;2.72;1.85;;;;;;;20.24;100.00;99823.06;5154664;55;1138700;-66
2023/07/28 19:40:12;;;;;;;2.67;2.33;;;;;;;20.31;100.00;99833.34;5184535;55;1138866;-65
2023/07/28 19:45:18;;;;;;;10.65;3.10;;;;;;;20.22;100.00;99837.20;5170270;56;1138791;-67
2023/07/28 19:50:24;;;;;;;3.50;2.90;;;;;;;20.30;100.00;99839.73;5183191;55;1140997;-65
2023/07/28 19:55:30;;;;;;;10.57;7.57;;;;;;;20.41;100.00;99845.09;5203880;55;1138755;-65
2023/07/28 20:00:35;;;;;;;11.57;6.87;;;;;;;20.41;100.00;99854.48;5158345;55;1140895;-65
2023/07/28 20:05:41;;;;;;;8.48;5.40;;;;;;;20.41;100.00;99863.89;5195508;56;1140843;-66
2023/07/28 20:10:46;;;;;;;12.00;8.08;;;;;;;20.38;100.00;99862.94;5146407;55;1139258;-65
2023/07/28 20:15:54;;;;;;;11.05;7.85;;;;;;;20.39;100.00;99867.28;5136385;55;1141037;-65
2023/07/28 20:20:59;;;;;;;7.25;5.45;;;;;;;20.38;100.00;99868.82;5183877;55;1140989;-64
2023/07/28 20:26:10;;;;;;;7.90;5.05;;;;;;;20.38;100.00;99873.68;5154884;55;1138762;-64
2023/07/28 20:31:12;;;;;;;4.70;4.22;;;;;;;20.36;100.00;99870.36;5123608;55;1139044;-65
2023/07/28 20:36:17;;;;;;;5.85;4.10;;;;;;;20.33;100.00;99870.20;5138358;55;1138630;-65
2023/07/28 20:41:23;;;;;;;4.03;3.72;;;;;;;20.28;100.00;99873.19;5102663;55;1138849;-66
2023/07/28 20:46:28;;;;;;;8.50;3.20;;;;;;;20.20;100.00;99878.19;5090403;55;1138880;-65
2023/07/28 20:51:34;;;;;;;7.67;2.90;;;;;;;20.09;100.00;99879.25;5061433;56;1139274;-67
2023/07/28 20:56:40;;;;;;;3.70;3.00;;;;;;;20.00;100.00;99880.75;4985397;56;1138677;-64
2023/07/28 21:01:45;;;;;;;4.80;3.70;;;;;;;19.97;100.00;99890.53;5088038;56;1139073;-66
2023/07/28 21:06:51;;;;;;;25.02;12.23;;;;;;;19.91;100.00;99898.01;5131235;55;1138970;-65
2023/07/28 21:11:56;;;;;;;11.78;7.95;;;;;;;19.85;100.00;99896.63;5152785;55;1143040;-64
2023/07/28 21:17:03;;;;;;;15.55;9.55;;;;;;;19.84;100.00;99897.66;5075138;56;1141093;-66
2023/07/28 21:22:09;;;;;;;14.13;7.95;;;;;;;19.83;100.00;99902.70;5044166;56;1140883;-64
2023/07/28 21:27:14;;;;;;;6.28;5.12;;;;;;;19.78;100.00;99913.17;5106205;55;1140868;-66
2023/07/28 21:32:20;;;;;;;5.03;4.53;;;;;;;19.73;100.00;99908.38;5094551;56;1139060;-66
2023/07/28 21:37:26;;;;;;;5.90;3.83;;;;;;;19.67;100.00;99917.22;5174346;55;1138764;-65
2023/07/28 21:42:31;;;;;;;13.98;3.25;;;;;;;19.58;100.00;99921.86;5186416;55;1138916;-66
2023/07/28 21:47:37;;;;;;;4.87;2.60;;;;;;;19.51;100.00;99919.64;5152327;55;1140790;-64
2023/07/28 21:52:44;;;;;;;5.03;2.90;;;;;;;19.47;100.00;99924.20;5143568;55;1138642;-64
2023/07/28 21:57:49;;;;;;;2.70;2.50;;;;;;;19.33;100.00;99933.95;5169420;55;1138783;-66
2023/07/28 22:02:55;;;;;;;6.37;2.77;;;;;;;19.02;100.00;99942.77;5174546;55;1138854;-65
2023/07/28 22:08:10;;;;;;;7.12;2.83;;;;;;;18.81;100.00;99947.03;5169501;55;1138715;-65
2023/07/28 22:13:16;;;;;;;3.60;2.95;;;;;;;18.81;100.00;99951.55;5163873;55;1138923;-66
2023/07/28 22:18:22;;;;;;;4.40;3.30;;;;;;;18.89;100.00;99950.13;5209867;55;1148125;-65
2023/07/28 22:23:27;;;;;;;6.03;3.40;;;;;;;18.96;100.00;99947.84;5193764;55;1138719;-66
2023/07/28 22:28:33;;;;;;;4.20;2.70;;;;;;;19.02;100.00;99950.80;5141392;55;1138730;-65
2023/07/28 22:33:38;;;;;;;5.05;2.92;;;;;;;19.04;100.00;99945.59;5070211;56;1138929;-65
2023/07/28 22:38:44;;;;;;;6.62;3.40;;;;;;;19.07;100.00;99950.58;5085863;56;1138641;-65
2023/07/28 22:43:49;;;;;;;4.10;2.62;;;;;;;19.10;100.00;99952.86;4873690;58;1138791;-65
2023/07/28 22:48:55;;;;;;;9.88;3.58;;;;;;;19.11;100.00;99957.70;5142177;55;1138663;-65
2023/07/28 22:54:01;;;;;;;43.48;5.40;;;;;;;19.04;100.00;99953.63;5082231;56;1138785;-66
2023/07/28 22:59:06;;;;;;;72.20;6.40;;;;;;;19.02;100.00;99951.64;5100894;56;1140819;-65
2023/07/28 23:04:12;;;;;;;64.67;6.20;;;;;;;18.98;100.00;99957.88;5131587;55;1141294;-65
2023/07/28 23:09:18;;;;;;;48.63;7.87;;;;;;;18.93;100.00;99968.34;5143144;56;1141337;-66
2023/07/28 23:14:23;;;;;;;26.05;6.45;;;;;;;18.84;100.00;99976.14;5110681;56;1141045;-66
2023/07/28 23:19:29;;;;;;;33.30;5.43;;;;;;;18.68;100.00;99974.15;5123897;55;1140993;-65